Time;durP1;ratioP1;P1;durP2;ratioP2;P2;SDS_P1;SDS_P2;PMS_P1;PMS_P2;Temp;Humidity;BMP_temperature;BMP_pressure;BME280_temperature;BME280_humidity;BME280_pressure;Samples;Min_cycle;Max_cycle;Signal;HPM_P1;HPM_P2
2022/10/13 00:02:23;;;;;;;23.90;10.77;;;;;;;9.19;100.00;101868.84;5057351;28;20564;-68
2022/10/13 00:04:49;;;;;;;26.67;12.25;;;;;;;9.22;100.00;101865.19;5037367;28;20032;-69
2022/10/13 00:07:14;;;;;;;28.77;11.77;;;;;;;9.26;100.00;101854.34;5059593;28;20044;-68
2022/10/13 00:09:40;;;;;;;34.58;11.40;;;;;;;9.45;100.00;101849.13;5055512;28;20049;-68
2022/10/13 00:12:05;;;;;;;30.20;10.90;;;;;;;9.44;100.00;101854.47;5042439;28;20052;-69
2022/10/13 00:14:31;;;;;;;28.60;11.90;;;;;;;9.42;100.00;101853.69;5059395;28;20043;-68
2022/10/13 00:16:56;;;;;;;31.63;11.07;;;;;;;9.49;100.00;101849.88;5042459;28;20055;-68
2022/10/13 00:19:21;;;;;;;31.38;12.43;;;;;;;9.64;100.00;101851.88;5060394;28;20059;-69
2022/10/13 00:21:47;;;;;;;32.85;12.07;;;;;;;9.65;100.00;101842.94;5060357;28;20044;-68
2022/10/13 00:24:13;;;;;;;22.20;10.98;;;;;;;9.75;100.00;101840.75;5053014;28;20062;-67
2022/10/13 00:26:38;;;;;;;32.80;11.63;;;;;;;9.73;100.00;101839.91;5053895;28;20036;-68
2022/10/13 00:29:05;;;;;;;27.50;11.40;;;;;;;9.77;100.00;101833.53;5059339;28;20032;-69
2022/10/13 00:31:31;;;;;;;30.70;11.70;;;;;;;9.76;100.00;101834.47;5060772;28;20900;-68
2022/10/13 00:33:59;;;;;;;21.98;11.73;;;;;;;9.71;100.00;101826.69;5059762;28;20085;-69
2022/10/13 00:36:24;;;;;;;27.25;11.55;;;;;;;9.72;100.00;101824.88;5058159;28;20499;-68
2022/10/13 00:38:51;;;;;;;26.25;12.80;;;;;;;9.84;100.00;101827.03;5040591;28;20032;-68
2022/10/13 00:41:16;;;;;;;29.25;11.18;;;;;;;9.82;100.00;101813.75;5054840;28;20036;-67
2022/10/13 00:43:47;;;;;;;23.67;11.18;;;;;;;9.88;100.00;101819.72;5055388;28;20041;-69
2022/10/13 00:46:14;;;;;;;22.35;11.20;;;;;;;9.81;100.00;101813.81;5041485;28;20037;-68
2022/10/13 00:48:40;;;;;;;29.95;12.13;;;;;;;9.87;100.00;101813.53;5059944;28;20033;-68
2022/10/13 00:51:07;;;;;;;34.70;13.63;;;;;;;9.95;100.00;101813.22;5059630;28;20034;-69
2022/10/13 00:53:36;;;;;;;27.02;12.25;;;;;;;9.96;100.00;101813.13;5054589;28;20032;-68
2022/10/13 00:56:02;;;;;;;34.63;12.52;;;;;;;9.97;100.00;101814.00;5056398;28;20056;-68
2022/10/13 00:58:30;;;;;;;31.10;13.10;;;;;;;9.98;100.00;101815.72;5056636;28;20040;-68
2022/10/13 01:00:56;;;;;;;32.20;13.43;;;;;;;10.00;100.00;101812.06;5059081;28;20070;-69
2022/10/13 01:03:22;;;;;;;27.60;12.90;;;;;;;10.09;100.00;101814.31;5018987;28;20478;-69
2022/10/13 01:05:50;;;;;;;39.83;12.70;;;;;;;10.16;100.00;101820.22;5056222;28;20159;-69
2022/10/13 01:08:16;;;;;;;24.10;12.60;;;;;;;10.18;100.00;101822.81;5056652;28;20080;-69
2022/10/13 01:10:45;;;;;;;27.40;12.20;;;;;;;10.16;100.00;101822.88;5054387;28;20047;-69
2022/10/13 01:13:30;;;;;;;32.45;12.80;;;;;;;10.18;100.00;101814.81;5058409;28;20123;-69
2022/10/13 01:16:28;;;;;;;32.67;13.15;;;;;;;10.23;100.00;101815.47;5048613;28;20922;-68
2022/10/13 01:19:12;;;;;;;31.05;13.07;;;;;;;10.26;100.00;101820.69;5059791;28;20044;-68
2022/10/13 01:22:03;;;;;;;35.10;12.95;;;;;;;10.21;100.00;101812.88;5058661;28;20052;-68
2022/10/13 01:24:29;;;;;;;36.50;14.00;;;;;;;10.30;100.00;101811.63;5059541;28;20762;-68
2022/10/13 01:27:13;;;;;;;33.53;13.40;;;;;;;10.31;100.00;101816.03;5056835;28;20036;-68
2022/10/13 01:30:08;;;;;;;33.53;13.55;;;;;;;10.41;100.00;101811.97;5056179;28;20098;-68
2022/10/13 01:32:52;;;;;;;33.03;13.63;;;;;;;10.44;100.00;101813.63;5055680;28;20043;-68
2022/10/13 01:35:44;;;;;;;38.25;13.85;;;;;;;10.44;100.00;101809.19;5054748;28;20764;-69
2022/10/13 01:38:39;;;;;;;25.83;14.18;;;;;;;10.40;100.00;101806.72;5059550;28;20051;-68
2022/10/13 01:41:11;;;;;;;27.65;13.43;;;;;;;10.36;100.00;101808.66;5057886;28;20063;-68
2022/10/13 01:43:47;;;;;;;34.45;14.05;;;;;;;10.48;100.00;101794.75;5053848;28;20091;-69
2022/10/13 01:46:35;;;;;;;33.50;14.43;;;;;;;10.58;100.00;101801.38;5058808;28;20044;-66
2022/10/13 01:49:06;;;;;;;31.52;13.82;;;;;;;10.65;100.00;101790.44;5055630;28;20055;-65
2022/10/13 01:51:32;;;;;;;24.75;13.30;;;;;;;10.61;100.00;101795.91;5058175;28;20036;-68
2022/10/13 01:53:58;;;;;;;31.27;14.23;;;;;;;10.62;100.00;101788.75;5054585;28;20105;-68
2022/10/13 01:56:23;;;;;;;25.48;13.60;;;;;;;10.61;100.00;101797.69;5058743;28;20033;-68
2022/10/13 01:58:51;;;;;;;27.60;13.50;;;;;;;10.66;100.00;101789.47;5058334;28;20036;-69
2022/10/13 02:01:26;;;;;;;45.17;15.35;;;;;;;10.66;100.00;101794.81;5058116;28;20029;-68
2022/10/13 02:04:06;;;;;;;24.77;12.73;;;;;;;10.60;100.00;101794.19;5039152;28;20052;-69
2022/10/13 02:06:44;;;;;;;29.58;12.77;;;;;;;10.56;100.00;101791.72;5049881;28;20250;-69
2022/10/13 02:09:21;;;;;;;31.88;14.68;;;;;;;10.62;100.00;101788.75;5057391;28;20669;-69
2022/10/13 02:11:59;;;;;;;29.15;13.13;;;;;;;10.49;100.00;101788.50;5034471;28;20039;-69
2022/10/13 02:14:29;;;;;;;32.75;13.55;;;;;;;10.54;100.00;101785.59;5058749;28;20127;-69
2022/10/13 02:16:59;;;;;;;42.08;14.25;;;;;;;10.52;100.00;101791.00;5060512;28;20044;-68
2022/10/13 02:19:26;;;;;;;33.40;13.93;;;;;;;10.51;100.00;101781.28;5060347;28;20033;-68
2022/10/13 02:21:52;;;;;;;31.58;12.57;;;;;;;10.59;100.00;101778.22;5047913;28;20043;-69
2022/10/13 02:24:18;;;;;;;26.08;12.95;;;;;;;10.60;100.00;101778.16;5057666;28;20032;-65
2022/10/13 02:26:44;;;;;;;31.73;14.68;;;;;;;10.45;100.00;101775.38;5062713;28;20477;-66
2022/10/13 02:29:13;;;;;;;22.90;12.80;;;;;;;10.42;100.00;101779.03;5060790;28;20044;-68
2022/10/13 02:31:39;;;;;;;29.95;13.63;;;;;;;10.49;100.00;101772.50;5040822;28;20037;-69
2022/10/13 02:34:05;;;;;;;34.08;15.60;;;;;;;10.45;100.00;101770.06;5044956;28;20485;-69
2022/10/13 02:36:31;;;;;;;29.33;13.40;;;;;;;10.42;100.00;101778.19;5037294;28;20047;-68
2022/10/13 02:38:56;;;;;;;28.70;14.48;;;;;;;10.48;100.00;101772.56;5064693;28;20066;-68
2022/10/13 02:41:22;;;;;;;39.50;14.85;;;;;;;10.43;100.00;101767.44;5044281;28;20040;-65
2022/10/13 02:43:47;;;;;;;35.00;15.40;;;;;;;10.38;100.00;101762.31;5063697;28;20044;-68
2022/10/13 02:46:13;;;;;;;33.03;15.25;;;;;;;10.43;100.00;101764.75;5058576;28;20036;-68
2022/10/13 02:48:39;;;;;;;29.33;15.23;;;;;;;10.37;100.00;101767.72;5061361;28;20037;-68
2022/10/13 02:51:05;;;;;;;32.58;15.52;;;;;;;10.40;100.00;101764.06;5057813;28;21552;-69
2022/10/13 02:53:30;;;;;;;33.63;15.93;;;;;;;10.37;100.00;101765.06;5062509;28;20028;-67
2022/10/13 02:55:57;;;;;;;33.58;16.25;;;;;;;10.38;100.00;101748.13;5058631;28;20319;-69
2022/10/13 02:58:23;;;;;;;35.35;16.23;;;;;;;10.43;100.00;101750.56;5036154;28;20063;-67
2022/10/13 03:00:49;;;;;;;37.17;16.77;;;;;;;10.47;100.00;101754.81;5062504;28;20147;-69
2022/10/13 03:03:14;;;;;;;36.63;17.33;;;;;;;10.55;100.00;101756.19;5056625;28;20556;-66
2022/10/13 03:05:40;;;;;;;35.08;16.83;;;;;;;10.59;100.00;101749.78;5059849;28;20062;-66
2022/10/13 03:08:05;;;;;;;35.95;16.17;;;;;;;10.57;100.00;101742.78;5059196;28;20078;-66
2022/10/13 03:10:31;;;;;;;38.90;17.63;;;;;;;10.57;100.00;101740.09;5062424;28;20036;-67
2022/10/13 03:12:57;;;;;;;39.15;17.77;;;;;;;10.56;100.00;101736.59;5044230;28;20564;-67
2022/10/13 03:15:23;;;;;;;39.42;18.83;;;;;;;10.56;100.00;101738.38;5062014;28;20073;-68
2022/10/13 03:17:49;;;;;;;45.85;18.85;;;;;;;10.53;100.00;101730.53;5056610;28;20063;-67
2022/10/13 03:20:15;;;;;;;35.70;15.93;;;;;;;10.66;100.00;101730.81;5057732;28;20491;-67
2022/10/13 03:22:41;;;;;;;41.17;16.30;;;;;;;10.58;100.00;101724.03;5058053;28;20091;-67
2022/10/13 03:25:06;;;;;;;43.35;17.73;;;;;;;10.66;100.00;101731.66;5060607;28;20040;-67
2022/10/13 03:27:32;;;;;;;36.22;17.98;;;;;;;10.71;100.00;101718.97;5059987;28;20485;-67
2022/10/13 03:29:57;;;;;;;38.45;17.98;;;;;;;10.62;100.00;101725.59;5056326;28;20040;-67
2022/10/13 03:32:23;;;;;;;34.03;17.98;;;;;;;10.67;100.00;101725.38;5060556;28;20036;-67
2022/10/13 03:34:49;;;;;;;40.78;18.95;;;;;;;10.57;100.00;101721.44;5043565;28;20489;-67
2022/10/13 03:37:14;;;;;;;40.72;18.92;;;;;;;10.60;100.00;101713.31;5060831;28;20165;-66
2022/10/13 03:39:40;;;;;;;40.63;18.45;;;;;;;10.63;100.00;101708.66;5060963;28;20070;-67
2022/10/13 03:42:07;;;;;;;45.75;17.73;;;;;;;10.62;100.00;101708.75;5057236;28;20044;-67
2022/10/13 03:44:34;;;;;;;41.50;17.13;;;;;;;10.75;100.00;101706.34;5059944;28;20066;-65
2022/10/13 03:47:00;;;;;;;38.42;16.95;;;;;;;10.81;100.00;101704.22;5039250;28;20041;-67
2022/10/13 03:49:25;;;;;;;37.50;16.55;;;;;;;10.79;100.00;101700.78;5039897;28;20033;-67
2022/10/13 03:51:51;;;;;;;27.85;14.55;;;;;;;10.69;100.00;101695.94;5030255;28;20037;-67
2022/10/13 03:54:17;;;;;;;28.38;13.48;;;;;;;10.69;100.00;101690.63;5052663;28;20032;-67
2022/10/13 03:56:45;;;;;;;31.35;14.13;;;;;;;10.71;100.00;101699.44;5055226;28;20032;-67
2022/10/13 03:59:12;;;;;;;32.00;13.63;;;;;;;10.64;100.00;101698.84;5060606;28;20048;-66
2022/10/13 04:01:38;;;;;;;31.13;13.90;;;;;;;10.65;100.00;101689.94;5060072;28;20106;-67
2022/10/13 04:04:04;;;;;;;29.85;14.43;;;;;;;10.70;100.00;101695.03;5054462;28;20036;-67
2022/10/13 04:06:30;;;;;;;36.08;14.18;;;;;;;10.69;100.00;101703.94;5060169;28;20044;-67
2022/10/13 04:08:56;;;;;;;30.83;14.27;;;;;;;10.76;100.00;101705.38;5060225;28;20054;-67
2022/10/13 04:11:22;;;;;;;25.33;13.85;;;;;;;10.75;100.00;101693.84;5059831;28;20044;-66
2022/10/13 04:13:55;;;;;;;31.93;14.13;;;;;;;10.80;100.00;101697.16;5059342;28;20052;-67
2022/10/13 04:16:23;;;;;;;29.98;13.75;;;;;;;10.82;100.00;101689.06;5057576;28;20042;-67
2022/10/13 04:19:00;;;;;;;33.10;14.50;;;;;;;10.83;100.00;101701.47;5060865;28;20040;-66
2022/10/13 04:21:28;;;;;;;27.27;14.88;;;;;;;10.85;100.00;101697.78;5042146;28;20064;-67
2022/10/13 04:23:56;;;;;;;30.80;14.35;;;;;;;10.95;100.00;101690.19;5042231;28;20106;-67
2022/10/13 04:26:24;;;;;;;33.65;16.45;;;;;;;10.90;100.00;101686.88;5059555;28;20044;-67
2022/10/13 04:28:51;;;;;;;29.40;15.02;;;;;;;10.93;100.00;101676.03;5052724;28;20077;-67
2022/10/13 04:31:17;;;;;;;27.50;13.88;;;;;;;11.01;100.00;101689.00;5058320;28;20043;-67
2022/10/13 04:33:43;;;;;;;29.80;13.25;;;;;;;10.95;100.00;101676.84;5057702;28;20497;-67
2022/10/13 04:36:11;;;;;;;26.52;13.40;;;;;;;10.99;100.00;101672.19;5056986;28;20036;-67
2022/10/13 04:38:37;;;;;;;29.80;13.77;;;;;;;10.90;100.00;101676.22;5059521;28;20094;-67
2022/10/13 04:41:04;;;;;;;29.30;13.90;;;;;;;10.94;100.00;101661.75;5060835;28;20036;-66
2022/10/13 04:43:30;;;;;;;29.08;14.48;;;;;;;10.96;100.00;101667.03;5056251;28;20064;-67
2022/10/13 04:46:03;;;;;;;28.60;14.85;;;;;;;10.92;100.00;101670.78;5058902;28;20047;-67
2022/10/13 04:48:29;;;;;;;27.75;13.48;;;;;;;10.94;100.00;101667.06;5058986;28;20476;-67
2022/10/13 04:51:01;;;;;;;32.35;15.00;;;;;;;10.92;100.00;101666.31;5059524;28;20027;-67
2022/10/13 04:53:28;;;;;;;24.30;12.88;;;;;;;10.92;100.00;101657.44;5029395;28;20029;-67
2022/10/13 04:55:55;;;;;;;28.10;13.43;;;;;;;10.88;100.00;101657.59;5058619;28;20461;-68
2022/10/13 04:58:20;;;;;;;29.60;14.05;;;;;;;10.95;100.00;101657.31;5040861;28;20044;-66
2022/10/13 05:00:46;;;;;;;32.80;15.25;;;;;;;10.90;100.00;101652.19;5049358;28;20040;-66
2022/10/13 05:03:12;;;;;;;23.42;12.52;;;;;;;10.92;100.00;101654.78;5052761;28;20055;-67
2022/10/13 05:05:38;;;;;;;34.85;13.93;;;;;;;10.96;100.00;101659.88;5057047;28;20044;-67
2022/10/13 05:08:03;;;;;;;33.95;15.27;;;;;;;10.92;100.00;101660.97;5038230;28;20116;-67
2022/10/13 05:10:29;;;;;;;34.78;14.93;;;;;;;10.99;100.00;101661.50;5049770;28;20148;-67
2022/10/13 05:12:54;;;;;;;31.95;15.45;;;;;;;10.93;100.00;101672.50;5040032;28;20041;-67
2022/10/13 05:15:20;;;;;;;33.97;14.00;;;;;;;10.91;100.00;101661.91;5055654;28;20032;-67
2022/10/13 05:17:45;;;;;;;29.67;14.57;;;;;;;10.92;100.00;101660.97;5054725;28;20533;-66
2022/10/13 05:20:11;;;;;;;32.70;14.50;;;;;;;10.91;100.00;101648.56;5059183;28;20106;-66
2022/10/13 05:22:36;;;;;;;27.88;13.43;;;;;;;10.85;100.00;101649.75;5039374;28;20148;-67
2022/10/13 05:25:03;;;;;;;30.10;15.25;;;;;;;10.89;100.00;101647.78;5054117;28;20037;-69
2022/10/13 05:27:28;;;;;;;34.75;15.68;;;;;;;10.87;100.00;101637.19;5057194;28;20576;-70
2022/10/13 05:29:54;;;;;;;28.73;14.35;;;;;;;10.95;100.00;101642.16;5037730;28;20102;-69
2022/10/13 05:32:19;;;;;;;29.45;14.38;;;;;;;10.92;100.00;101636.97;5056940;28;20082;-68
2022/10/13 05:34:47;;;;;;;31.67;14.18;;;;;;;10.95;100.00;101646.63;5053750;28;20045;-70
2022/10/13 05:37:15;;;;;;;32.17;14.18;;;;;;;10.91;100.00;101653.06;5056825;28;20378;-69
2022/10/13 05:39:41;;;;;;;32.05;14.82;;;;;;;10.86;100.00;101672.81;5058205;28;20129;-69
2022/10/13 05:42:07;;;;;;;32.42;14.60;;;;;;;10.80;100.00;101667.81;5027708;28;20028;-69
2022/10/13 05:44:32;;;;;;;34.22;14.52;;;;;;;10.79;100.00;101674.09;5058375;28;20056;-69
2022/10/13 05:46:58;;;;;;;34.00;13.45;;;;;;;10.82;100.00;101667.72;5059548;28;20045;-69
2022/10/13 05:49:23;;;;;;;33.17;14.30;;;;;;;10.83;100.00;101672.13;5060261;28;20036;-69
2022/10/13 05:51:56;;;;;;;33.08;15.27;;;;;;;10.80;100.00;101661.63;5062764;28;20044;-68
2022/10/13 05:54:32;;;;;;;35.50;15.48;;;;;;;10.81;100.00;101661.53;5060480;28;20123;-69
2022/10/13 05:57:13;;;;;;;31.42;16.13;;;;;;;10.88;100.00;101668.25;5062695;28;20055;-69
2022/10/13 05:59:48;;;;;;;35.38;14.82;;;;;;;10.92;100.00;101668.13;5059083;28;20071;-68
2022/10/13 06:02:16;;;;;;;33.83;15.88;;;;;;;10.89;100.00;101663.78;5041991;28;20051;-69
2022/10/13 06:04:45;;;;;;;28.70;14.88;;;;;;;10.97;100.00;101666.06;5060217;28;20107;-70
2022/10/13 06:07:11;;;;;;;37.80;16.65;;;;;;;10.94;100.00;101664.41;5059816;28;20062;-68
2022/10/13 06:09:38;;;;;;;36.03;16.52;;;;;;;10.99;100.00;101664.19;5051747;28;20128;-69
2022/10/13 06:12:05;;;;;;;30.73;14.48;;;;;;;11.01;100.00;101668.50;5044050;28;20048;-69
2022/10/13 06:14:31;;;;;;;37.70;15.70;;;;;;;11.03;100.00;101671.94;5038856;28;20119;-66
2022/10/13 06:16:56;;;;;;;35.67;15.52;;;;;;;11.06;100.00;101671.81;5062748;28;20047;-68
2022/10/13 06:19:22;;;;;;;33.75;16.75;;;;;;;11.11;100.00;101671.56;5061650;28;20048;-67
2022/10/13 06:21:47;;;;;;;48.20;17.48;;;;;;;11.13;100.00;101669.66;5062917;28;20069;-69
2022/10/13 06:24:13;;;;;;;43.47;16.58;;;;;;;11.14;100.00;101664.25;5059623;28;20040;-69
2022/10/13 06:26:38;;;;;;;39.95;16.42;;;;;;;11.12;100.00;101659.94;5061543;28;20059;-70
2022/10/13 06:29:04;;;;;;;35.75;15.65;;;;;;;11.15;100.00;101649.09;5043959;28;20033;-68
2022/10/13 06:31:29;;;;;;;37.92;17.88;;;;;;;11.26;100.00;101660.06;5054806;28;20478;-69
2022/10/13 06:33:55;;;;;;;38.90;18.27;;;;;;;11.37;100.00;101643.47;5058925;28;20044;-67
2022/10/13 06:36:20;;;;;;;38.08;16.48;;;;;;;11.45;100.00;101641.25;5058635;28;20969;-68
2022/10/13 06:38:46;;;;;;;38.13;17.67;;;;;;;11.49;100.00;101648.13;5065364;28;20451;-69
2022/10/13 06:41:13;;;;;;;34.45;15.85;;;;;;;11.54;100.00;101648.75;5059006;28;20608;-70
2022/10/13 06:43:38;;;;;;;33.67;15.68;;;;;;;11.59;100.00;101638.69;5059314;28;20080;-69
2022/10/13 06:46:05;;;;;;;31.45;15.23;;;;;;;11.74;100.00;101636.13;5062431;28;20128;-68
2022/10/13 06:48:30;;;;;;;31.58;15.27;;;;;;;11.95;100.00;101634.06;5061756;28;20032;-69
2022/10/13 06:51:06;;;;;;;30.38;15.05;;;;;;;12.07;100.00;101644.09;5056500;28;20040;-67
2022/10/13 06:53:32;;;;;;;31.48;14.70;;;;;;;11.98;100.00;101647.28;5061278;28;20048;-68
2022/10/13 06:55:59;;;;;;;28.60;15.07;;;;;;;12.12;100.00;101629.50;5060496;28;20044;-69
2022/10/13 06:58:25;;;;;;;42.40;16.30;;;;;;;12.15;100.00;101639.19;5061279;28;20495;-69
2022/10/13 07:00:51;;;;;;;32.85;14.05;;;;;;;12.25;100.00;101634.16;5025218;28;20389;-69
2022/10/13 07:03:17;;;;;;;33.97;15.00;;;;;;;12.35;100.00;101643.34;5058535;28;20047;-69
2022/10/13 07:05:42;;;;;;;29.70;13.85;;;;;;;12.29;100.00;101639.22;5050389;28;20552;-69
2022/10/13 07:08:07;;;;;;;28.98;13.32;;;;;;;12.37;100.00;101634.31;5060672;28;20044;-69
2022/10/13 07:10:33;;;;;;;37.35;15.20;;;;;;;12.28;100.00;101631.31;5060773;28;20033;-69
2022/10/13 07:12:58;;;;;;;37.25;15.63;;;;;;;12.28;100.00;101637.50;5058609;28;20036;-70
2022/10/13 07:15:24;;;;;;;28.63;13.95;;;;;;;12.33;100.00;101639.91;5041602;28;20043;-67
2022/10/13 07:17:52;;;;;;;32.80;14.98;;;;;;;12.37;100.00;101633.44;5033953;28;20843;-69
2022/10/13 07:20:20;;;;;;;33.40;14.80;;;;;;;12.27;100.00;101629.59;5056286;28;20117;-70
2022/10/13 07:22:46;;;;;;;31.80;15.30;;;;;;;12.40;100.00;101635.97;5058728;28;20036;-70
2022/10/13 07:25:14;;;;;;;32.65;14.27;;;;;;;12.30;100.00;101638.31;5059657;28;20094;-69
2022/10/13 07:27:39;;;;;;;32.60;14.52;;;;;;;12.34;100.00;101641.63;5038834;28;20032;-70
2022/10/13 07:30:06;;;;;;;28.45;14.60;;;;;;;12.37;100.00;101628.09;5060529;28;20443;-69
2022/10/13 07:32:32;;;;;;;31.00;14.77;;;;;;;12.34;100.00;101631.81;5051354;28;20041;-68
2022/10/13 07:34:58;;;;;;;34.05;14.90;;;;;;;12.36;100.00;101635.25;5047031;28;20602;-70
2022/10/13 07:37:24;;;;;;;37.15;17.02;;;;;;;12.43;100.00;101641.97;5060694;28;20036;-69
2022/10/13 07:39:50;;;;;;;28.90;14.40;;;;;;;12.43;100.00;101644.66;5054247;28;20081;-70
2022/10/13 07:42:16;;;;;;;28.90;13.85;;;;;;;12.30;100.00;101640.97;5060199;28;20040;-69
2022/10/13 07:44:42;;;;;;;33.47;15.43;;;;;;;12.34;100.00;101638.97;5061393;28;20060;-69
2022/10/13 07:47:07;;;;;;;38.08;14.57;;;;;;;12.38;100.00;101637.84;5059862;28;20805;-70
2022/10/13 07:49:33;;;;;;;33.88;15.98;;;;;;;12.47;100.00;101641.81;5053399;28;20052;-70
2022/10/13 07:51:59;;;;;;;37.35;16.73;;;;;;;12.44;100.00;101641.00;5040846;28;20036;-69
2022/10/13 07:54:25;;;;;;;35.55;15.52;;;;;;;12.42;100.00;101644.75;5058827;28;20040;-68
2022/10/13 07:56:51;;;;;;;31.65;15.38;;;;;;;12.40;100.00;101641.31;5058516;28;20082;-68
2022/10/13 07:59:17;;;;;;;29.75;14.70;;;;;;;12.46;100.00;101638.25;5050606;28;20067;-69
2022/10/13 08:01:43;;;;;;;34.03;15.30;;;;;;;12.57;100.00;101648.34;5056580;28;20044;-70
2022/10/13 08:04:08;;;;;;;32.45;16.13;;;;;;;12.57;100.00;101645.66;5059980;28;20029;-69
2022/10/13 08:06:34;;;;;;;33.20;14.38;;;;;;;12.71;100.00;101643.03;5059710;28;20126;-70
2022/10/13 08:09:00;;;;;;;33.72;15.32;;;;;;;12.74;100.00;101640.16;5060894;28;20120;-69
2022/10/13 08:11:26;;;;;;;35.53;15.85;;;;;;;12.86;100.00;101634.09;5040958;28;20584;-68
2022/10/13 08:13:52;;;;;;;32.97;14.30;;;;;;;12.73;100.00;101638.44;5057480;28;20127;-70
2022/10/13 08:16:21;;;;;;;30.15;15.60;;;;;;;12.86;100.00;101633.22;5059716;28;20087;-68
2022/10/13 08:18:47;;;;;;;37.85;15.00;;;;;;;12.93;100.00;101626.53;5036615;28;20047;-67
2022/10/13 08:21:16;;;;;;;36.15;15.18;;;;;;;13.01;100.00;101629.63;5041419;28;20045;-68
2022/10/13 08:23:42;;;;;;;40.72;15.07;;;;;;;13.15;100.00;101637.69;5041671;28;20119;-69
2022/10/13 08:26:16;;;;;;;30.40;13.32;;;;;;;13.02;100.00;101636.69;5049885;28;20075;-69
2022/10/13 08:28:42;;;;;;;29.77;15.05;;;;;;;13.00;100.00;101646.63;5057644;28;20397;-70
2022/10/13 08:31:07;;;;;;;34.67;14.43;;;;;;;13.08;100.00;101643.50;5021827;28;20047;-68
2022/10/13 08:33:33;;;;;;;28.83;14.90;;;;;;;13.05;100.00;101641.88;5054224;28;20048;-69
2022/10/13 08:35:59;;;;;;;30.08;14.77;;;;;;;13.07;100.00;101641.78;5059153;28;20043;-69
2022/10/13 08:38:25;;;;;;;40.08;17.48;;;;;;;13.20;100.00;101635.56;5024923;28;20036;-70
2022/10/13 08:40:51;;;;;;;31.77;15.05;;;;;;;13.32;100.00;101638.47;5021626;28;20668;-68
2022/10/13 08:43:21;;;;;;;40.50;14.82;;;;;;;13.39;100.00;101637.13;5057236;28;20067;-69
2022/10/13 08:45:51;;;;;;;26.25;14.40;;;;;;;13.56;100.00;101634.25;5037427;28;20056;-69
2022/10/13 08:48:19;;;;;;;32.15;15.48;;;;;;;13.76;100.00;101630.31;5058466;28;20079;-69
2022/10/13 08:50:49;;;;;;;26.42;14.10;;;;;;;13.93;100.00;101632.75;5057801;28;20032;-70
2022/10/13 08:53:35;;;;;;;32.22;14.55;;;;;;;13.98;100.00;101635.13;5052686;28;20055;-70
2022/10/13 08:56:26;;;;;;;30.85;15.43;;;;;;;14.04;100.00;101634.75;5039525;28;20039;-68
2022/10/13 08:58:55;;;;;;;29.80;13.88;;;;;;;14.12;100.00;101632.44;5039278;28;20056;-70
2022/10/13 09:01:28;;;;;;;30.33;15.13;;;;;;;14.27;100.00;101618.97;5054244;28;20115;-67
2022/10/13 09:04:28;;;;;;;42.15;15.13;;;;;;;14.39;100.00;101623.50;5054460;28;20040;-70
2022/10/13 09:07:13;;;;;;;29.02;14.38;;;;;;;14.27;100.00;101627.88;5048221;28;20110;-68
2022/10/13 09:09:39;;;;;;;28.88;13.55;;;;;;;14.27;100.00;101625.19;5029590;28;20062;-69
2022/10/13 09:12:05;;;;;;;31.15;14.48;;;;;;;14.34;100.00;101622.94;5058956;28;20028;-69
2022/10/13 09:14:33;;;;;;;26.25;12.68;;;;;;;14.54;100.00;101627.00;5052951;28;20717;-68
2022/10/13 09:17:32;;;;;;;28.30;14.18;;;;;;;14.64;100.00;101622.75;5048878;28;20024;-69
2022/10/13 09:20:06;;;;;;;29.15;14.98;;;;;;;14.86;100.00;101614.97;4981423;28;20048;-69
2022/10/13 09:22:34;;;;;;;25.92;12.82;;;;;;;15.17;100.00;101618.19;5058152;28;20059;-68
2022/10/13 09:25:18;;;;;;;25.52;13.88;;;;;;;15.28;100.00;101613.75;5053671;28;20569;-68
2022/10/13 09:27:47;;;;;;;36.40;15.07;;;;;;;15.47;100.00;101616.00;5055559;28;20559;-68
2022/10/13 09:30:25;;;;;;;26.92;13.45;;;;;;;15.27;100.00;101606.69;5055394;28;20036;-69
2022/10/13 09:33:12;;;;;;;28.35;14.68;;;;;;;15.44;100.00;101615.38;5058460;28;20028;-70
2022/10/13 09:35:41;;;;;;;26.85;13.10;;;;;;;15.83;100.00;101600.03;5035622;28;20141;-69
2022/10/13 09:38:21;;;;;;;28.52;14.07;;;;;;;15.91;100.00;101590.41;5057996;28;20516;-67
2022/10/13 09:40:58;;;;;;;23.98;13.85;;;;;;;16.19;100.00;101591.06;5053650;28;20047;-70
2022/10/13 09:43:44;;;;;;;32.65;14.63;;;;;;;16.23;99.11;101590.72;5057585;28;20037;-67
2022/10/13 09:46:28;;;;;;;26.90;14.32;;;;;;;16.12;99.99;101593.38;5056275;28;20703;-69
2022/10/13 09:48:58;;;;;;;25.05;13.05;;;;;;;16.23;99.17;101593.41;5055490;28;20048;-70
2022/10/13 09:51:44;;;;;;;25.42;12.43;;;;;;;16.17;100.00;101593.03;5052273;28;20306;-69
2022/10/13 09:54:45;;;;;;;31.77;13.32;;;;;;;16.59;100.00;101596.97;5046473;28;20120;-69
2022/10/13 09:57:29;;;;;;;26.67;13.75;;;;;;;16.41;98.54;101587.59;5046885;28;20071;-67
2022/10/13 10:00:13;;;;;;;28.25;12.73;;;;;;;16.30;100.00;101588.41;5049585;28;20052;-69
2022/10/13 10:03:05;;;;;;;23.20;12.18;;;;;;;16.12;100.00;101589.81;5038391;28;20041;-69
2022/10/13 10:05:43;;;;;;;23.75;13.57;;;;;;;16.20;100.00;101588.25;5037963;28;20127;-69
2022/10/13 10:08:33;;;;;;;26.73;12.20;;;;;;;16.28;100.00;101591.25;5048879;28;20044;-69
2022/10/13 10:11:08;;;;;;;30.00;13.07;;;;;;;16.34;99.65;101586.38;5038504;28;20051;-70
2022/10/13 10:13:34;;;;;;;26.75;12.07;;;;;;;16.83;98.44;101594.28;5058057;28;20050;-69
2022/10/13 10:16:28;;;;;;;23.98;12.00;;;;;;;16.54;99.61;101588.41;5057576;28;20032;-70
2022/10/13 10:19:09;;;;;;;23.08;12.68;;;;;;;16.50;99.28;101581.53;5047979;28;20032;-70
2022/10/13 10:21:48;;;;;;;24.05;12.90;;;;;;;16.42;99.29;101584.81;5057470;28;20078;-69
2022/10/13 10:24:23;;;;;;;29.77;12.77;;;;;;;16.48;99.79;101583.50;5057909;28;20033;-70
2022/10/13 10:27:00;;;;;;;31.42;13.05;;;;;;;16.35;100.00;101588.06;5054960;28;20557;-68
2022/10/13 10:29:44;;;;;;;29.63;13.82;;;;;;;16.26;100.00;101579.72;5053005;28;20068;-69
2022/10/13 10:32:36;;;;;;;26.42;14.07;;;;;;;16.51;98.81;101585.94;5056070;28;20071;-70
2022/10/13 10:35:17;;;;;;;28.65;13.73;;;;;;;16.07;100.00;101587.47;5059644;28;20567;-69
2022/10/13 10:38:01;;;;;;;30.20;13.25;;;;;;;15.93;100.00;101583.13;5054108;28;20079;-70
2022/10/13 10:40:51;;;;;;;27.92;14.40;;;;;;;15.98;100.00;101577.41;5056276;28;20785;-69
2022/10/13 10:43:35;;;;;;;28.45;15.20;;;;;;;15.75;100.00;101585.31;5063116;28;20035;-68
2022/10/13 10:46:01;;;;;;;28.20;14.32;;;;;;;15.65;100.00;101583.41;5060321;28;20040;-68
2022/10/13 10:48:33;;;;;;;32.55;14.45;;;;;;;15.26;100.00;101587.97;5057315;28;20392;-69
2022/10/13 10:51:00;;;;;;;31.45;14.38;;;;;;;15.10;100.00;101582.81;5039497;28;20522;-68
2022/10/13 10:53:48;;;;;;;34.15;15.82;;;;;;;15.07;100.00;101583.06;5035480;28;20036;-69
2022/10/13 10:56:31;;;;;;;28.65;14.52;;;;;;;15.08;100.00;101574.03;5019076;28;20051;-68
2022/10/13 10:59:05;;;;;;;27.38;14.80;;;;;;;15.28;100.00;101570.78;5056947;28;20086;-69
2022/10/13 11:01:55;;;;;;;28.92;14.50;;;;;;;15.17;100.00;101570.69;5056276;28;20083;-69
2022/10/13 11:04:45;;;;;;;33.95;14.27;;;;;;;15.15;100.00;101567.22;5042750;28;20037;-69
2022/10/13 11:07:23;;;;;;;27.42;13.93;;;;;;;15.12;100.00;101567.47;5038025;28;20135;-70
2022/10/13 11:09:51;;;;;;;28.75;14.65;;;;;;;15.14;100.00;101567.34;5058560;28;20033;-69
2022/10/13 11:12:20;;;;;;;32.83;15.85;;;;;;;15.16;100.00;101560.03;5041469;28;20040;-69
2022/10/13 11:15:00;;;;;;;35.45;15.05;;;;;;;15.03;100.00;101565.44;5052158;28;20189;-68
2022/10/13 11:17:27;;;;;;;31.65;16.13;;;;;;;14.85;100.00;101559.50;5059038;28;20036;-68